sensor_id;sensor_type;location;lat;lon;timestamp;pressure;altitude;pressure_sealevel;temperature;humidity
64294;BME280;50636;45.596;5.258;2022-09-03T00:01:49;98331.03;;;23.97;59.84
64294;BME280;50636;45.596;5.258;2022-09-03T00:04:31;98330.91;;;23.88;59.76
64294;BME280;50636;45.596;5.258;2022-09-03T00:07:02;98332.97;;;23.77;59.68
64294;BME280;50636;45.596;5.258;2022-09-03T00:09:35;98332.91;;;23.63;59.80
64294;BME280;50636;45.596;5.258;2022-09-03T00:14:43;98338.41;;;23.39;60.05
64294;BME280;50636;45.596;5.258;2022-09-03T00:17:13;98342.72;;;23.21;60.06
64294;BME280;50636;45.596;5.258;2022-09-03T00:19:43;98338.59;;;23.10;60.27
64294;BME280;50636;45.596;5.258;2022-09-03T00:22:13;98338.13;;;23.22;60.24
64294;BME280;50636;45.596;5.258;2022-09-03T00:24:40;98334.69;;;23.21;60.50
64294;BME280;50636;45.596;5.258;2022-09-03T00:27:10;98336.13;;;23.13;60.00
64294;BME280;50636;45.596;5.258;2022-09-03T00:29:42;98336.84;;;23.19;59.94
64294;BME280;50636;45.596;5.258;2022-09-03T00:32:14;98330.94;;;23.36;59.69
64294;BME280;50636;45.596;5.258;2022-09-03T00:34:44;98327.31;;;23.46;59.82
64294;BME280;50636;45.596;5.258;2022-09-03T00:37:11;98319.88;;;23.43;59.81
64294;BME280;50636;45.596;5.258;2022-09-03T00:39:37;98310.16;;;23.47;59.39
64294;BME280;50636;45.596;5.258;2022-09-03T00:52:32;98328.69;;;23.10;60.17
64294;BME280;50636;45.596;5.258;2022-09-03T01:00:17;98327.81;;;22.58;60.98
64294;BME280;50636;45.596;5.258;2022-09-03T01:05:55;98323.19;;;22.64;61.50
64294;BME280;50636;45.596;5.258;2022-09-03T01:10:32;98311.81;;;22.53;62.83
64294;BME280;50636;45.596;5.258;2022-09-03T01:15:31;98312.69;;;22.00;64.53
64294;BME280;50636;45.596;5.258;2022-09-03T01:20:33;98318.72;;;22.11;65.04
64294;BME280;50636;45.596;5.258;2022-09-03T01:30:35;98324.63;;;22.08;65.35
64294;BME280;50636;45.596;5.258;2022-09-03T01:38:09;98302.78;;;22.01;66.39
64294;BME280;50636;45.596;5.258;2022-09-03T01:45:57;98307.78;;;21.59;67.97
64294;BME280;50636;45.596;5.258;2022-09-03T01:59:06;98310.63;;;21.92;67.58
64294;BME280;50636;45.596;5.258;2022-09-03T02:01:42;98300.75;;;21.92;67.44
64294;BME280;50636;45.596;5.258;2022-09-03T02:04:17;98296.25;;;22.12;67.68
64294;BME280;50636;45.596;5.258;2022-09-03T02:06:44;98301.00;;;22.15;67.11
64294;BME280;50636;45.596;5.258;2022-09-03T02:09:13;98311.50;;;22.11;66.63
64294;BME280;50636;45.596;5.258;2022-09-03T02:11:39;98309.16;;;22.05;66.89
64294;BME280;50636;45.596;5.258;2022-09-03T02:14:08;98304.19;;;21.93;67.43
64294;BME280;50636;45.596;5.258;2022-09-03T02:16:33;98304.28;;;21.88;67.53
64294;BME280;50636;45.596;5.258;2022-09-03T02:19:04;98305.84;;;21.89;67.14
64294;BME280;50636;45.596;5.258;2022-09-03T02:21:32;98309.56;;;21.93;67.18
64294;BME280;50636;45.596;5.258;2022-09-03T02:23:58;98312.72;;;21.95;66.51
64294;BME280;50636;45.596;5.258;2022-09-03T02:26:25;98301.25;;;21.94;66.42
64294;BME280;50636;45.596;5.258;2022-09-03T02:28:52;98308.75;;;21.92;66.23
64294;BME280;50636;45.596;5.258;2022-09-03T02:31:18;98301.31;;;21.89;65.99
64294;BME280;50636;45.596;5.258;2022-09-03T02:33:44;98307.28;;;21.81;65.82
64294;BME280;50636;45.596;5.258;2022-09-03T02:36:12;98316.38;;;21.80;65.84
64294;BME280;50636;45.596;5.258;2022-09-03T02:38:40;98313.19;;;21.78;65.88
64294;BME280;50636;45.596;5.258;2022-09-03T02:41:05;98318.00;;;21.76;65.60
64294;BME280;50636;45.596;5.258;2022-09-03T02:44:32;98321.34;;;21.63;65.61
64294;BME280;50636;45.596;5.258;2022-09-03T02:46:33;98317.72;;;21.48;65.83
64294;BME280;50636;45.596;5.258;2022-09-03T02:49:00;98319.03;;;21.51;65.55
64294;BME280;50636;45.596;5.258;2022-09-03T02:51:26;98329.66;;;21.61;65.95
64294;BME280;50636;45.596;5.258;2022-09-03T02:53:55;98324.16;;;21.77;65.81
64294;BME280;50636;45.596;5.258;2022-09-03T02:56:21;98336.38;;;21.83;65.54
64294;BME280;50636;45.596;5.258;2022-09-03T02:58:49;98340.66;;;21.84;65.25
64294;BME280;50636;45.596;5.258;2022-09-03T03:01:15;98335.34;;;21.79;65.18
64294;BME280;50636;45.596;5.258;2022-09-03T03:03:40;98337.56;;;21.71;65.03
64294;BME280;50636;45.596;5.258;2022-09-03T03:06:06;98345.94;;;21.60;65.05
64294;BME280;50636;45.596;5.258;2022-09-03T03:08:31;98344.34;;;21.59;65.21
64294;BME280;50636;45.596;5.258;2022-09-03T03:10:59;98341.03;;;21.72;65.15
64294;BME280;50636;45.596;5.258;2022-09-03T03:13:28;98340.66;;;21.84;65.01
64294;BME280;50636;45.596;5.258;2022-09-03T03:15:57;98345.66;;;21.90;64.61
64294;BME280;50636;45.596;5.258;2022-09-03T03:18:23;98347.03;;;21.88;64.56
64294;BME280;50636;45.596;5.258;2022-09-03T03:20:48;98345.94;;;21.89;64.55
64294;BME280;50636;45.596;5.258;2022-09-03T03:23:17;98348.94;;;21.82;64.37
64294;BME280;50636;45.596;5.258;2022-09-03T03:25:42;98342.34;;;21.74;64.80
64294;BME280;50636;45.596;5.258;2022-09-03T03:28:08;98343.94;;;21.76;64.86
64294;BME280;50636;45.596;5.258;2022-09-03T03:30:35;98349.59;;;21.69;65.02
64294;BME280;50636;45.596;5.258;2022-09-03T03:33:02;98350.94;;;21.71;64.63
64294;BME280;50636;45.596;5.258;2022-09-03T03:35:29;98349.66;;;21.64;64.73
64294;BME280;50636;45.596;5.258;2022-09-03T03:37:56;98353.97;;;21.60;64.85
64294;BME280;50636;45.596;5.258;2022-09-03T03:40:21;98357.41;;;21.60;64.84
64294;BME280;50636;45.596;5.258;2022-09-03T03:42:47;98355.28;;;21.62;64.90
64294;BME280;50636;45.596;5.258;2022-09-03T03:45:14;98357.66;;;21.64;65.37
64294;BME280;50636;45.596;5.258;2022-09-03T03:47:39;98355.28;;;21.62;66.00
64294;BME280;50636;45.596;5.258;2022-09-03T03:50:05;98362.16;;;21.68;65.67
64294;BME280;50636;45.596;5.258;2022-09-03T03:52:30;98363.25;;;21.67;65.91
64294;BME280;50636;45.596;5.258;2022-09-03T03:54:56;98360.09;;;21.60;66.07
64294;BME280;50636;45.596;5.258;2022-09-03T03:57:22;98362.06;;;21.49;66.89
64294;BME280;50636;45.596;5.258;2022-09-03T03:59:47;98350.06;;;21.42;66.99
64294;BME280;50636;45.596;5.258;2022-09-03T04:02:14;98340.47;;;21.41;67.82
64294;BME280;50636;45.596;5.258;2022-09-03T04:04:39;98337.00;;;21.45;68.00
64294;BME280;50636;45.596;5.258;2022-09-03T04:07:05;98334.59;;;21.44;68.25
64294;BME280;50636;45.596;5.258;2022-09-03T04:09:30;98339.66;;;21.40;68.72
64294;BME280;50636;45.596;5.258;2022-09-03T04:11:56;98342.63;;;21.44;68.15
64294;BME280;50636;45.596;5.258;2022-09-03T04:14:25;98342.34;;;21.45;68.45
64294;BME280;50636;45.596;5.258;2022-09-03T04:16:51;98335.28;;;21.60;68.33
64294;BME280;50636;45.596;5.258;2022-09-03T04:19:18;98336.03;;;21.65;68.16
64294;BME280;50636;45.596;5.258;2022-09-03T04:21:43;98341.41;;;21.60;68.17
64294;BME280;50636;45.596;5.258;2022-09-03T04:24:09;98334.84;;;21.42;68.18
64294;BME280;50636;45.596;5.258;2022-09-03T04:26:36;98334.91;;;21.37;68.64
64294;BME280;50636;45.596;5.258;2022-09-03T04:29:03;98331.19;;;21.67;68.80
64294;BME280;50636;45.596;5.258;2022-09-03T04:31:29;98328.72;;;22.00;67.82
64294;BME280;50636;45.596;5.258;2022-09-03T04:33:55;98322.13;;;22.41;67.17
64294;BME280;50636;45.596;5.258;2022-09-03T04:36:21;98334.94;;;22.63;66.13
64294;BME280;50636;45.596;5.258;2022-09-03T04:38:48;98334.69;;;22.64;64.98
64294;BME280;50636;45.596;5.258;2022-09-03T04:41:19;98326.47;;;22.56;64.58
64294;BME280;50636;45.596;5.258;2022-09-03T04:43:44;98326.28;;;22.52;64.49
64294;BME280;50636;45.596;5.258;2022-09-03T04:46:13;98326.69;;;22.40;64.36
64294;BME280;50636;45.596;5.258;2022-09-03T04:48:39;98325.97;;;22.53;64.33
64294;BME280;50636;45.596;5.258;2022-09-03T04:51:06;98322.78;;;22.51;63.88
64294;BME280;50636;45.596;5.258;2022-09-03T04:53:35;98322.13;;;22.41;63.96
64294;BME280;50636;45.596;5.258;2022-09-03T04:56:01;98323.03;;;22.31;63.99
64294;BME280;50636;45.596;5.258;2022-09-03T04:58:27;98315.25;;;22.10;63.90
64294;BME280;50636;45.596;5.258;2022-09-03T05:00:52;98313.59;;;21.90;64.89
64294;BME280;50636;45.596;5.258;2022-09-03T05:03:18;98313.19;;;21.78;65.75
64294;BME280;50636;45.596;5.258;2022-09-03T05:05:55;98311.25;;;21.84;65.93
64294;BME280;50636;45.596;5.258;2022-09-03T05:08:21;98305.69;;;22.04;65.10
64294;BME280;50636;45.596;5.258;2022-09-03T05:10:47;98309.44;;;22.03;64.96
64294;BME280;50636;45.596;5.258;2022-09-03T05:13:13;98306.56;;;22.00;65.21
64294;BME280;50636;45.596;5.258;2022-09-03T05:15:38;98311.00;;;21.85;65.33
64294;BME280;50636;45.596;5.258;2022-09-03T05:18:09;98304.94;;;21.74;66.00
64294;BME280;50636;45.596;5.258;2022-09-03T05:20:35;98302.53;;;21.73;66.09
64294;BME280;50636;45.596;5.258;2022-09-03T05:23:03;98307.06;;;21.78;66.23
64294;BME280;50636;45.596;5.258;2022-09-03T05:25:29;98300.06;;;21.82;66.24
64294;BME280;50636;45.596;5.258;2022-09-03T05:27:57;98299.50;;;21.85;66.08
64294;BME280;50636;45.596;5.258;2022-09-03T05:30:23;98301.66;;;21.83;65.77
64294;BME280;50636;45.596;5.258;2022-09-03T05:32:49;98291.47;;;21.85;66.20
64294;BME280;50636;45.596;5.258;2022-09-03T05:35:16;98296.78;;;21.90;66.16
64294;BME280;50636;45.596;5.258;2022-09-03T05:37:41;98295.00;;;22.04;66.06
64294;BME280;50636;45.596;5.258;2022-09-03T05:40:07;98299.38;;;22.43;65.61
64294;BME280;50636;45.596;5.258;2022-09-03T05:42:36;98293.91;;;22.72;64.47
64294;BME280;50636;45.596;5.258;2022-09-03T05:45:03;98294.97;;;23.09;63.64
64294;BME280;50636;45.596;5.258;2022-09-03T05:47:30;98298.44;;;23.89;62.32
64294;BME280;50636;45.596;5.258;2022-09-03T05:49:55;98297.59;;;24.44;60.11
64294;BME280;50636;45.596;5.258;2022-09-03T05:52:21;98298.81;;;24.38;59.29
64294;BME280;50636;45.596;5.258;2022-09-03T05:54:47;98305.59;;;24.22;59.65
64294;BME280;50636;45.596;5.258;2022-09-03T05:57:12;98309.88;;;24.09;59.47
64294;BME280;50636;45.596;5.258;2022-09-03T05:59:41;98318.09;;;23.85;59.41
64294;BME280;50636;45.596;5.258;2022-09-03T06:02:07;98309.38;;;23.46;60.09
64294;BME280;50636;45.596;5.258;2022-09-03T06:04:32;98320.84;;;23.33;60.42
64294;BME280;50636;45.596;5.258;2022-09-03T06:06:57;98323.13;;;23.72;60.77
64294;BME280;50636;45.596;5.258;2022-09-03T06:09:23;98320.44;;;24.69;59.92
64294;BME280;50636;45.596;5.258;2022-09-03T06:11:48;98323.03;;;25.34;57.32
64294;BME280;50636;45.596;5.258;2022-09-03T06:14:14;98323.13;;;25.28;56.73
64294;BME280;50636;45.596;5.258;2022-09-03T06:16:44;98334.41;;;25.93;56.77
64294;BME280;50636;45.596;5.258;2022-09-03T06:19:10;98342.13;;;27.01;54.60
64294;BME280;50636;45.596;5.258;2022-09-03T06:21:38;98326.16;;;27.78;51.02
64294;BME280;50636;45.596;5.258;2022-09-03T06:24:11;98321.53;;;27.78;50.96
64294;BME280;50636;45.596;5.258;2022-09-03T06:26:38;98330.09;;;28.27;50.54
64294;BME280;50636;45.596;5.258;2022-09-03T06:29:04;98328.38;;;28.95;49.27
64294;BME280;50636;45.596;5.258;2022-09-03T06:31:29;98331.50;;;29.39;48.19
64294;BME280;50636;45.596;5.258;2022-09-03T06:33:55;98319.47;;;29.94;46.70
64294;BME280;50636;45.596;5.258;2022-09-03T06:36:21;98321.94;;;30.49;46.36
64294;BME280;50636;45.596;5.258;2022-09-03T06:38:50;98328.78;;;31.11;46.35
64294;BME280;50636;45.596;5.258;2022-09-03T06:41:16;98332.31;;;31.72;46.18
64294;BME280;50636;45.596;5.258;2022-09-03T06:43:49;98331.28;;;32.24;45.30
64294;BME280;50636;45.596;5.258;2022-09-03T06:46:16;98328.31;;;32.84;44.14
64294;BME280;50636;45.596;5.258;2022-09-03T06:48:45;98322.59;;;33.51;43.08
64294;BME280;50636;45.596;5.258;2022-09-03T06:51:18;98318.09;;;33.82;41.56
64294;BME280;50636;45.596;5.258;2022-09-03T06:53:48;98317.41;;;34.38;40.36
64294;BME280;50636;45.596;5.258;2022-09-03T06:56:18;98335.50;;;35.48;39.33
64294;BME280;50636;45.596;5.258;2022-09-03T06:58:50;98334.81;;;36.03;37.21
64294;BME280;50636;45.596;5.258;2022-09-03T07:01:18;98340.47;;;34.18;37.73
64294;BME280;50636;45.596;5.258;2022-09-03T07:03:44;98341.63;;;32.89;39.90
64294;BME280;50636;45.596;5.258;2022-09-03T07:06:14;98345.81;;;33.65;39.04
64294;BME280;50636;45.596;5.258;2022-09-03T07:08:40;98345.38;;;34.92;37.13
64294;BME280;50636;45.596;5.258;2022-09-03T07:11:10;98345.97;;;35.84;35.51
64294;BME280;50636;45.596;5.258;2022-09-03T07:13:40;98338.03;;;35.68;34.14
64294;BME280;50636;45.596;5.258;2022-09-03T07:16:10;98345.09;;;35.35;35.02
64294;BME280;50636;45.596;5.258;2022-09-03T07:18:36;98339.47;;;35.17;33.97
64294;BME280;50636;45.596;5.258;2022-09-03T07:21:06;98342.66;;;34.35;35.40
64294;BME280;50636;45.596;5.258;2022-09-03T07:23:32;98350.03;;;34.35;35.96
64294;BME280;50636;45.596;5.258;2022-09-03T07:25:59;98343.19;;;34.71;35.65
64294;BME280;50636;45.596;5.258;2022-09-03T07:28:27;98344.84;;;34.53;35.20
64294;BME280;50636;45.596;5.258;2022-09-03T07:30:53;98337.25;;;35.67;34.30
64294;BME280;50636;45.596;5.258;2022-09-03T07:33:19;98337.00;;;37.15;31.95
64294;BME280;50636;45.596;5.258;2022-09-03T07:35:45;98340.22;;;38.36;30.32
64294;BME280;50636;45.596;5.258;2022-09-03T07:38:10;98339.84;;;39.33;29.07
64294;BME280;50636;45.596;5.258;2022-09-03T07:40:36;98355.09;;;39.48;28.64
64294;BME280;50636;45.596;5.258;2022-09-03T07:43:03;98348.00;;;39.47;28.68
64294;BME280;50636;45.596;5.258;2022-09-03T07:45:29;98363.94;;;39.70;27.81
64294;BME280;50636;45.596;5.258;2022-09-03T07:47:55;98362.97;;;39.99;27.19
64294;BME280;50636;45.596;5.258;2022-09-03T07:50:21;98364.88;;;40.02;27.36
64294;BME280;50636;45.596;5.258;2022-09-03T07:52:46;98359.47;;;40.36;26.93
64294;BME280;50636;45.596;5.258;2022-09-03T07:55:12;98362.34;;;40.63;26.59
64294;BME280;50636;45.596;5.258;2022-09-03T07:57:38;98373.19;;;41.08;25.86
64294;BME280;50636;45.596;5.258;2022-09-03T08:00:05;98371.44;;;41.80;25.81
64294;BME280;50636;45.596;5.258;2022-09-03T08:02:33;98388.25;;;42.56;24.90
64294;BME280;50636;45.596;5.258;2022-09-03T08:05:00;98373.16;;;41.94;24.46
64294;BME280;50636;45.596;5.258;2022-09-03T08:07:27;98381.88;;;41.38;25.35
64294;BME280;50636;45.596;5.258;2022-09-03T08:09:53;98393.53;;;41.76;25.64
64294;BME280;50636;45.596;5.258;2022-09-03T08:12:21;98384.56;;;42.19;24.23
64294;BME280;50636;45.596;5.258;2022-09-03T08:14:48;98388.66;;;42.11;24.36
64294;BME280;50636;45.596;5.258;2022-09-03T08:17:13;98388.53;;;42.18;24.12
64294;BME280;50636;45.596;5.258;2022-09-03T08:19:39;98396.91;;;42.58;24.05
64294;BME280;50636;45.596;5.258;2022-09-03T08:22:06;98391.97;;;42.46;23.54
64294;BME280;50636;45.596;5.258;2022-09-03T08:24:31;98391.91;;;42.49;23.73
64294;BME280;50636;45.596;5.258;2022-09-03T08:26:58;98392.16;;;42.79;24.02
64294;BME280;50636;45.596;5.258;2022-09-03T08:29:24;98403.91;;;41.92;23.52
64294;BME280;50636;45.596;5.258;2022-09-03T08:31:51;98399.69;;;41.57;24.24
64294;BME280;50636;45.596;5.258;2022-09-03T08:34:17;98403.31;;;41.81;24.21
64294;BME280;50636;45.596;5.258;2022-09-03T08:36:42;98394.22;;;42.31;23.29
64294;BME280;50636;45.596;5.258;2022-09-03T08:39:11;98405.19;;;42.35;23.23
64294;BME280;50636;45.596;5.258;2022-09-03T08:44:21;98412.78;;;39.38;25.26
64294;BME280;50636;45.596;5.258;2022-09-03T08:52:19;98415.06;;;41.58;22.84
64294;BME280;50636;45.596;5.258;2022-09-03T08:54:46;98422.09;;;40.18;21.88
64294;BME280;50636;45.596;5.258;2022-09-03T08:57:13;98433.41;;;38.25;23.59
64294;BME280;50636;45.596;5.258;2022-09-03T08:59:40;98425.59;;;38.34;24.27
64294;BME280;50636;45.596;5.258;2022-09-03T09:08:04;98433.03;;;38.70;23.18
64294;BME280;50636;45.596;5.258;2022-09-03T09:22:53;98436.53;;;38.63;24.38
64294;BME280;50636;45.596;5.258;2022-09-03T09:25:21;98426.81;;;39.58;22.29
64294;BME280;50636;45.596;5.258;2022-09-03T09:28:01;98431.31;;;39.97;21.86
64294;BME280;50636;45.596;5.258;2022-09-03T09:30:29;98426.38;;;38.39;22.98
64294;BME280;50636;45.596;5.258;2022-09-03T09:32:55;98412.28;;;38.44;22.74
64294;BME280;50636;45.596;5.258;2022-09-03T09:35:20;98421.66;;;38.57;22.34
64294;BME280;50636;45.596;5.258;2022-09-03T09:37:47;98419.66;;;37.61;22.77
64294;BME280;50636;45.596;5.258;2022-09-03T09:40:21;98432.47;;;37.31;24.14
64294;BME280;50636;45.596;5.258;2022-09-03T09:42:47;98419.66;;;38.83;23.07
64294;BME280;50636;45.596;5.258;2022-09-03T09:45:13;98416.00;;;39.92;22.19
64294;BME280;50636;45.596;5.258;2022-09-03T09:47:39;98416.66;;;40.56;21.35
64294;BME280;50636;45.596;5.258;2022-09-03T09:50:14;98410.88;;;41.15;21.12
64294;BME280;50636;45.596;5.258;2022-09-03T09:52:41;98418.03;;;41.70;20.47
64294;BME280;50636;45.596;5.258;2022-09-03T09:55:16;98408.78;;;42.31;20.30
64294;BME280;50636;45.596;5.258;2022-09-03T09:57:42;98409.06;;;42.61;19.33
64294;BME280;50636;45.596;5.258;2022-09-03T10:00:09;98401.56;;;42.38;19.71
64294;BME280;50636;45.596;5.258;2022-09-03T10:02:37;98406.59;;;42.66;19.55
64294;BME280;50636;45.596;5.258;2022-09-03T10:05:14;98399.22;;;42.60;19.42
64294;BME280;50636;45.596;5.258;2022-09-03T10:07:53;98409.34;;;41.96;20.03
64294;BME280;50636;45.596;5.258;2022-09-03T10:10:19;98410.00;;;40.53;20.52
64294;BME280;50636;45.596;5.258;2022-09-03T10:13:29;98414.56;;;38.85;22.06
64294;BME280;50636;45.596;5.258;2022-09-03T10:15:53;98404.19;;;37.09;23.63
64294;BME280;50636;45.596;5.258;2022-09-03T10:26:24;98409.81;;;36.13;25.93
64294;BME280;50636;45.596;5.258;2022-09-03T10:29:00;98394.19;;;37.49;24.37
64294;BME280;50636;45.596;5.258;2022-09-03T10:31:33;98394.63;;;37.91;24.00
64294;BME280;50636;45.596;5.258;2022-09-03T10:39:13;98380.19;;;38.26;24.21
64294;BME280;50636;45.596;5.258;2022-09-03T10:44:30;98383.00;;;39.96;22.72
64294;BME280;50636;45.596;5.258;2022-09-03T10:57:50;98380.94;;;38.41;22.80
64294;BME280;50636;45.596;5.258;2022-09-03T11:00:20;98380.78;;;37.12;23.34
64294;BME280;50636;45.596;5.258;2022-09-03T11:05:27;98381.47;;;35.84;25.17
64294;BME280;50636;45.596;5.258;2022-09-03T11:07:58;98370.69;;;37.48;24.18
64294;BME280;50636;45.596;5.258;2022-09-03T11:10:32;98367.22;;;38.45;22.82
64294;BME280;50636;45.596;5.258;2022-09-03T11:13:01;98367.22;;;40.07;21.95
64294;BME280;50636;45.596;5.258;2022-09-03T11:18:10;98355.84;;;40.81;20.91
64294;BME280;50636;45.596;5.258;2022-09-03T11:20:38;98352.50;;;39.75;21.70
64294;BME280;50636;45.596;5.258;2022-09-03T11:23:06;98358.03;;;39.05;22.16
64294;BME280;50636;45.596;5.258;2022-09-03T11:25:34;98359.78;;;38.56;22.65
64294;BME280;50636;45.596;5.258;2022-09-03T11:32:58;98361.28;;;37.31;23.62
64294;BME280;50636;45.596;5.258;2022-09-03T11:40:34;98357.41;;;37.43;24.88
64294;BME280;50636;45.596;5.258;2022-09-03T11:50:58;98351.69;;;36.16;26.03
64294;BME280;50636;45.596;5.258;2022-09-03T11:53:32;98347.91;;;35.83;25.93
64294;BME280;50636;45.596;5.258;2022-09-03T11:56:00;98350.91;;;35.67;26.61
64294;BME280;50636;45.596;5.258;2022-09-03T11:58:30;98347.50;;;35.40;27.08
64294;BME280;50636;45.596;5.258;2022-09-03T12:01:01;98346.84;;;36.54;26.72
64294;BME280;50636;45.596;5.258;2022-09-03T12:03:50;98348.47;;;37.82;25.37
64294;BME280;50636;45.596;5.258;2022-09-03T12:09:07;98346.13;;;37.70;24.85
64294;BME280;50636;45.596;5.258;2022-09-03T12:11:55;98331.34;;;39.09;23.40
64294;BME280;50636;45.596;5.258;2022-09-03T12:22:12;98328.50;;;38.10;22.50
64294;BME280;50636;45.596;5.258;2022-09-03T12:24:39;98332.34;;;37.20;23.34
64294;BME280;50636;45.596;5.258;2022-09-03T12:27:09;98344.66;;;36.77;24.07
64294;BME280;50636;45.596;5.258;2022-09-03T12:29:36;98344.25;;;36.13;24.72
64294;BME280;50636;45.596;5.258;2022-09-03T12:32:05;98340.72;;;35.64;25.61
64294;BME280;50636;45.596;5.258;2022-09-03T12:34:31;98341.38;;;35.50;26.04
64294;BME280;50636;45.596;5.258;2022-09-03T12:37:00;98335.53;;;35.55;26.08
64294;BME280;50636;45.596;5.258;2022-09-03T12:39:26;98331.41;;;36.17;25.97
64294;BME280;50636;45.596;5.258;2022-09-03T12:42:06;98328.59;;;36.65;25.39
64294;BME280;50636;45.596;5.258;2022-09-03T12:47:02;98333.00;;;36.22;25.29
64294;BME280;50636;45.596;5.258;2022-09-03T12:49:33;98321.09;;;35.96;25.75
64294;BME280;50636;45.596;5.258;2022-09-03T12:52:04;98320.91;;;35.71;26.14
64294;BME280;50636;45.596;5.258;2022-09-03T12:54:33;98334.53;;;35.30;26.71
64294;BME280;50636;45.596;5.258;2022-09-03T12:56:59;98329.28;;;35.14;26.86
64294;BME280;50636;45.596;5.258;2022-09-03T12:59:28;98334.06;;;34.90;27.03
64294;BME280;50636;45.596;5.258;2022-09-03T13:01:58;98331.22;;;34.53;27.64
64294;BME280;50636;45.596;5.258;2022-09-03T13:04:27;98336.72;;;34.03;28.00
64294;BME280;50636;45.596;5.258;2022-09-03T13:07:06;98320.94;;;33.66;28.55
64294;BME280;50636;45.596;5.258;2022-09-03T13:09:36;98331.91;;;33.27;29.15
64294;BME280;50636;45.596;5.258;2022-09-03T13:12:03;98333.53;;;33.32;30.09
64294;BME280;50636;45.596;5.258;2022-09-03T13:14:42;98335.63;;;33.19;30.16
64294;BME280;50636;45.596;5.258;2022-09-03T13:34:49;98287.53;;;30.00;39.51
64294;BME280;50636;45.596;5.258;2022-09-03T13:37:37;98281.63;;;29.48;40.16
64294;BME280;50636;45.596;5.258;2022-09-03T13:40:12;98270.50;;;29.17;40.57
64294;BME280;50636;45.596;5.258;2022-09-03T13:42:40;98264.59;;;29.02;40.38
64294;BME280;50636;45.596;5.258;2022-09-03T13:45:25;98258.84;;;29.04;40.48
64294;BME280;50636;45.596;5.258;2022-09-03T13:47:55;98249.94;;;29.24;41.58
64294;BME280;50636;45.596;5.258;2022-09-03T13:50:42;98247.06;;;29.66;40.55
64294;BME280;50636;45.596;5.258;2022-09-03T13:53:23;98244.25;;;29.87;39.52
64294;BME280;50636;45.596;5.258;2022-09-03T13:55:55;98239.16;;;30.23;38.84
64294;BME280;50636;45.596;5.258;2022-09-03T13:58:30;98240.34;;;30.78;37.45
64294;BME280;50636;45.596;5.258;2022-09-03T14:09:14;98243.78;;;31.99;33.41
64294;BME280;50636;45.596;5.258;2022-09-03T14:14:36;98256.41;;;32.07;31.96
64294;BME280;50636;45.596;5.258;2022-09-03T14:16:58;98268.13;;;31.95;31.94
64294;BME280;50636;45.596;5.258;2022-09-03T14:24:46;98293.19;;;31.13;32.38
64294;BME280;50636;45.596;5.258;2022-09-03T14:27:12;98303.53;;;30.82;32.62
64294;BME280;50636;45.596;5.258;2022-09-03T14:29:50;98307.56;;;30.73;32.49
64294;BME280;50636;45.596;5.258;2022-09-03T14:32:26;98296.84;;;30.64;32.52
64294;BME280;50636;45.596;5.258;2022-09-03T14:37:27;98286.81;;;30.52;32.51
64294;BME280;50636;45.596;5.258;2022-09-03T14:39:58;98282.22;;;30.53;32.46
64294;BME280;50636;45.596;5.258;2022-09-03T14:42:38;98288.34;;;30.78;32.28
64294;BME280;50636;45.596;5.258;2022-09-03T14:47:42;98287.16;;;31.48;31.93
64294;BME280;50636;45.596;5.258;2022-09-03T14:52:58;98300.09;;;31.54;32.48
64294;BME280;50636;45.596;5.258;2022-09-03T15:08:38;98318.22;;;30.29;33.51
64294;BME280;50636;45.596;5.258;2022-09-03T15:11:14;98307.63;;;30.36;33.12
64294;BME280;50636;45.596;5.258;2022-09-03T15:13:45;98300.97;;;30.33;32.80
64294;BME280;50636;45.596;5.258;2022-09-03T15:16:30;98297.91;;;30.47;32.65
64294;BME280;50636;45.596;5.258;2022-09-03T15:19:04;98294.91;;;30.64;32.12
64294;BME280;50636;45.596;5.258;2022-09-03T15:21:50;98293.53;;;30.83;32.03
64294;BME280;50636;45.596;5.258;2022-09-03T15:27:06;98290.44;;;30.84;32.16
64294;BME280;50636;45.596;5.258;2022-09-03T15:29:39;98297.94;;;30.75;32.10
64294;BME280;50636;45.596;5.258;2022-09-03T15:34:57;98310.50;;;30.67;32.35
64294;BME280;50636;45.596;5.258;2022-09-03T15:40:16;98307.47;;;30.57;32.36
64294;BME280;50636;45.596;5.258;2022-09-03T15:42:45;98303.50;;;30.54;32.34
64294;BME280;50636;45.596;5.258;2022-09-03T15:45:24;98298.25;;;30.33;32.53
64294;BME280;50636;45.596;5.258;2022-09-03T15:47:53;98299.50;;;30.11;32.55
64294;BME280;50636;45.596;5.258;2022-09-03T15:50:33;98295.78;;;30.03;32.57
64294;BME280;50636;45.596;5.258;2022-09-03T15:53:14;98306.59;;;29.91;32.96
64294;BME280;50636;45.596;5.258;2022-09-03T15:55:48;98316.53;;;29.87;32.99
64294;BME280;50636;45.596;5.258;2022-09-03T15:59:09;98315.63;;;29.83;33.23
64294;BME280;50636;45.596;5.258;2022-09-03T16:03:54;98322.25;;;30.10;33.03
64294;BME280;50636;45.596;5.258;2022-09-03T16:06:30;98329.41;;;30.02;33.15
64294;BME280;50636;45.596;5.258;2022-09-03T16:09:48;98328.69;;;30.05;33.10
64294;BME280;50636;45.596;5.258;2022-09-03T16:14:19;98317.88;;;30.05;33.11
64294;BME280;50636;45.596;5.258;2022-09-03T16:19:42;98313.25;;;29.94;33.59
64294;BME280;50636;45.596;5.258;2022-09-03T16:22:30;98313.69;;;29.83;33.86
64294;BME280;50636;45.596;5.258;2022-09-03T16:25:01;98309.59;;;29.65;34.10
64294;BME280;50636;45.596;5.258;2022-09-03T16:27:29;98311.59;;;29.56;34.32
64294;BME280;50636;45.596;5.258;2022-09-03T16:30:01;98315.03;;;29.32;34.01
64294;BME280;50636;45.596;5.258;2022-09-03T16:32:32;98314.59;;;29.08;34.21
64294;BME280;50636;45.596;5.258;2022-09-03T16:37:32;98307.81;;;28.81;34.38
64294;BME280;50636;45.596;5.258;2022-09-03T16:42:39;98312.44;;;28.81;34.72
64294;BME280;50636;45.596;5.258;2022-09-03T17:01:01;98316.41;;;28.33;35.39
64294;BME280;50636;45.596;5.258;2022-09-03T17:08:50;98328.00;;;28.03;35.74
64294;BME280;50636;45.596;5.258;2022-09-03T17:24:17;98346.63;;;27.70;36.81
64294;BME280;50636;45.596;5.258;2022-09-03T17:29:54;98356.19;;;27.59;37.27
64294;BME280;50636;45.596;5.258;2022-09-03T17:32:30;98361.28;;;27.52;37.12